Time;durP1;ratioP1;P1;durP2;ratioP2;P2;SDS_P1;SDS_P2;PMS_P1;PMS_P2;Temp;Humidity;BMP_temperature;BMP_pressure;BME280_temperature;BME280_humidity;BME280_pressure;Samples;Min_cycle;Max_cycle;Signal;HPM_P1;HPM_P2
2021/06/17 00:00:22;;;;;;;1.83;1.45;;;24.60;35.00;;;;;;5111952;28;20035;-65
2021/06/17 00:02:49;;;;;;;2.83;1.60;;;24.50;35.10;;;;;;5093225;28;20074;-65
2021/06/17 00:05:17;;;;;;;5.70;1.98;;;24.50;35.30;;;;;;5093454;28;20012;-65
2021/06/17 00:07:44;;;;;;;2.90;1.98;;;24.40;35.30;;;;;;5092882;28;20107;-64
2021/06/17 00:10:16;;;;;;;2.53;1.90;;;24.50;35.20;;;;;;5093524;28;20031;-65
2021/06/17 00:12:42;;;;;;;7.13;1.75;;;24.40;35.60;;;;;;5093193;28;20038;-64
2021/06/17 00:15:10;;;;;;;2.85;1.80;;;24.30;35.30;;;;;;5093324;28;20020;-65
2021/06/17 00:17:36;;;;;;;2.28;1.70;;;24.30;35.50;;;;;;5092831;28;20024;-65
2021/06/17 00:20:06;;;;;;;2.17;1.30;;;24.30;35.50;;;;;;5092931;28;20043;-65
2021/06/17 00:22:32;;;;;;;3.00;1.90;;;24.30;35.50;;;;;;5092847;28;20027;-65
2021/06/17 00:24:58;;;;;;;3.53;1.73;;;24.30;36.20;;;;;;5092940;28;20026;-65
2021/06/17 00:27:23;;;;;;;2.92;1.67;;;24.30;35.80;;;;;;5104972;28;20433;-65
2021/06/17 00:29:49;;;;;;;1.90;1.67;;;24.20;35.70;;;;;;5113242;28;20077;-65
2021/06/17 00:32:15;;;;;;;2.53;1.60;;;24.20;35.90;;;;;;5093503;28;20470;-65
2021/06/17 00:34:40;;;;;;;3.83;1.83;;;24.20;36.00;;;;;;5107634;28;20404;-64
2021/06/17 00:37:06;;;;;;;2.90;1.85;;;24.20;35.90;;;;;;5112271;28;20028;-65
2021/06/17 00:39:32;;;;;;;4.15;1.88;;;24.10;35.90;;;;;;5113103;28;20488;-64
2021/06/17 00:41:57;;;;;;;2.75;1.60;;;24.10;35.90;;;;;;5112731;28;20035;-64
2021/06/17 00:44:23;;;;;;;3.47;1.80;;;24.10;36.00;;;;;;5093104;28;20107;-64
2021/06/17 00:46:49;;;;;;;3.35;1.80;;;24.10;36.20;;;;;;5092698;28;20492;-65
2021/06/17 00:49:15;;;;;;;1.77;1.55;;;24.00;36.10;;;;;;5092692;28;20055;-65
2021/06/17 00:51:40;;;;;;;4.53;1.83;;;24.00;36.10;;;;;;5092219;28;20036;-64
2021/06/17 00:54:06;;;;;;;4.00;1.95;;;24.00;36.30;;;;;;5092109;28;20031;-65
2021/06/17 00:56:32;;;;;;;2.70;1.70;;;23.90;36.30;;;;;;5103304;28;20019;-64
2021/06/17 00:58:58;;;;;;;2.78;1.95;;;23.90;36.70;;;;;;5112742;28;20040;-65
2021/06/17 01:01:24;;;;;;;2.13;1.50;;;23.90;36.80;;;;;;5112349;28;20020;-64
2021/06/17 01:03:50;;;;;;;4.70;1.70;;;23.90;36.60;;;;;;5111934;28;20015;-65
2021/06/17 01:06:16;;;;;;;4.90;2.00;;;23.80;37.00;;;;;;5112561;28;20020;-64
2021/06/17 01:08:51;;;;;;;2.28;2.03;;;23.80;37.20;;;;;;5112563;28;20016;-64
2021/06/17 01:11:53;;;;;;;3.45;1.88;;;23.80;37.60;;;;;;5112554;28;20100;-64
2021/06/17 01:14:26;;;;;;;3.28;1.63;;;23.70;37.20;;;;;;5095239;28;20020;-64
2021/06/17 01:17:05;;;;;;;2.00;1.63;;;23.70;37.10;;;;;;5109205;28;20023;-64
2021/06/17 01:19:31;;;;;;;2.22;1.83;;;23.70;37.30;;;;;;5099240;28;20039;-65
2021/06/17 01:22:07;;;;;;;5.55;1.73;;;23.60;37.20;;;;;;5091847;28;20046;-64
2021/06/17 01:25:07;;;;;;;2.10;1.67;;;23.60;37.40;;;;;;5092036;28;20024;-64
2021/06/17 01:27:39;;;;;;;5.38;2.35;;;23.60;37.50;;;;;;5091704;28;20549;-64
2021/06/17 01:30:12;;;;;;;3.13;1.80;;;23.50;37.60;;;;;;5091580;28;20023;-64
2021/06/17 01:32:42;;;;;;;1.83;1.60;;;23.50;37.60;;;;;;5091391;28;20091;-65
2021/06/17 01:35:11;;;;;;;3.58;1.77;;;23.50;37.90;;;;;;5091720;28;20489;-64
2021/06/17 01:37:38;;;;;;;2.05;1.60;;;23.50;38.40;;;;;;5091756;28;20020;-64
2021/06/17 01:40:06;;;;;;;3.08;1.85;;;23.40;38.20;;;;;;5091741;28;20026;-65
2021/06/17 01:42:35;;;;;;;3.53;1.85;;;23.40;38.50;;;;;;5091669;28;20061;-65
2021/06/17 01:45:02;;;;;;;3.60;2.00;;;23.40;38.40;;;;;;5094889;28;20373;-64
2021/06/17 01:47:29;;;;;;;3.15;1.80;;;23.30;38.40;;;;;;5102601;28;20026;-65
2021/06/17 01:49:56;;;;;;;3.85;1.85;;;23.30;38.40;;;;;;5115060;28;20113;-64
2021/06/17 01:52:24;;;;;;;3.58;1.77;;;23.30;38.60;;;;;;5116102;28;20074;-65
2021/06/17 01:54:51;;;;;;;11.30;2.17;;;23.20;38.90;;;;;;5110393;28;20051;-64
2021/06/17 01:57:20;;;;;;;2.55;1.88;;;23.20;38.90;;;;;;5116004;28;20023;-64
2021/06/17 01:59:48;;;;;;;2.80;2.08;;;23.20;39.00;;;;;;5116078;28;20422;-65
2021/06/17 02:02:16;;;;;;;3.15;1.80;;;23.10;39.30;;;;;;5115860;28;20019;-65
2021/06/17 02:04:46;;;;;;;3.00;1.70;;;23.10;39.60;;;;;;5114938;28;20024;-64
2021/06/17 02:07:13;;;;;;;3.70;2.10;;;23.10;39.40;;;;;;5115997;28;20051;-64
2021/06/17 02:09:40;;;;;;;3.13;1.92;;;23.10;39.40;;;;;;5116065;28;20020;-65
2021/06/17 02:12:06;;;;;;;2.65;1.65;;;23.00;39.40;;;;;;5114651;28;20030;-64
2021/06/17 02:14:33;;;;;;;5.25;1.92;;;23.00;39.40;;;;;;5096310;28;20028;-65
2021/06/17 02:17:01;;;;;;;3.50;1.98;;;23.00;39.50;;;;;;5095850;28;20434;-64
2021/06/17 02:19:29;;;;;;;4.03;2.10;;;22.90;40.00;;;;;;5094065;28;20024;-64
2021/06/17 02:21:59;;;;;;;2.92;2.10;;;22.90;39.80;;;;;;5107927;28;20053;-64
2021/06/17 02:24:27;;;;;;;4.32;1.85;;;22.90;39.90;;;;;;5115797;28;20016;-64
2021/06/17 02:26:58;;;;;;;3.78;1.88;;;22.90;40.40;;;;;;5114164;28;20436;-64
2021/06/17 02:29:24;;;;;;;3.33;2.13;;;22.90;40.10;;;;;;5115514;27;20027;-64
2021/06/17 02:31:53;;;;;;;6.38;2.05;;;22.90;40.50;;;;;;5114128;28;20038;-64
2021/06/17 02:34:19;;;;;;;4.05;2.03;;;22.80;40.30;;;;;;5094784;28;20059;-65
2021/06/17 02:36:47;;;;;;;2.33;1.77;;;22.80;40.00;;;;;;5095846;28;20389;-64
2021/06/17 02:39:19;;;;;;;2.30;1.48;;;22.80;40.20;;;;;;5095758;28;20028;-64
2021/06/17 02:41:50;;;;;;;3.47;2.08;;;22.80;40.40;;;;;;5095772;28;20032;-64
2021/06/17 02:44:18;;;;;;;2.58;1.92;;;22.70;40.40;;;;;;5095621;28;20146;-65
2021/06/17 02:46:44;;;;;;;1.63;1.40;;;22.70;40.20;;;;;;5112049;28;20019;-64
2021/06/17 02:49:10;;;;;;;2.35;1.85;;;22.70;40.00;;;;;;5115892;28;20438;-64
2021/06/17 02:51:36;;;;;;;3.08;2.22;;;22.70;40.30;;;;;;5096590;28;20040;-64
2021/06/17 02:54:02;;;;;;;1.58;1.40;;;22.70;40.50;;;;;;5099184;28;20032;-65
2021/06/17 02:56:49;;;;;;;2.47;1.80;;;22.60;40.60;;;;;;5115177;28;20034;-64
2021/06/17 02:59:43;;;;;;;5.70;2.05;;;22.60;40.70;;;;;;5115822;28;20051;-64
2021/06/17 03:02:17;;;;;;;2.40;1.80;;;22.60;41.00;;;;;;5113122;28;20028;-65
2021/06/17 03:04:52;;;;;;;10.32;2.35;;;22.60;41.00;;;;;;5095138;28;20050;-64
2021/06/17 03:07:29;;;;;;;3.75;1.80;;;22.60;41.40;;;;;;5095206;28;20085;-64
2021/06/17 03:10:05;;;;;;;5.82;2.38;;;22.50;41.50;;;;;;5095051;28;20068;-65
2021/06/17 03:12:33;;;;;;;3.88;1.88;;;22.50;41.80;;;;;;5094684;28;20032;-64
2021/06/17 03:15:04;;;;;;;2.58;2.13;;;22.50;42.00;;;;;;5095122;28;20466;-64
2021/06/17 03:17:32;;;;;;;5.97;2.15;;;22.50;42.00;;;;;;5094843;28;20436;-64
2021/06/17 03:20:03;;;;;;;6.03;3.25;;;22.50;42.10;;;;;;5093555;28;20043;-64
2021/06/17 03:22:30;;;;;;;4.70;2.00;;;22.40;42.60;;;;;;5095046;28;20012;-65
2021/06/17 03:25:03;;;;;;;8.90;2.42;;;22.40;42.40;;;;;;5115058;27;20385;-64
2021/06/17 03:27:29;;;;;;;13.73;2.78;;;22.40;42.40;;;;;;5115035;28;20065;-65
2021/06/17 03:29:56;;;;;;;5.03;2.80;;;22.40;42.60;;;;;;5114866;28;20028;-64
2021/06/17 03:32:26;;;;;;;3.53;2.13;;;22.40;43.00;;;;;;5112882;28;20410;-64
2021/06/17 03:34:53;;;;;;;5.38;2.33;;;22.40;43.10;;;;;;5094444;28;20055;-64
2021/06/17 03:37:21;;;;;;;3.50;2.08;;;22.40;43.30;;;;;;5094265;28;20488;-65
2021/06/17 03:39:48;;;;;;;3.40;2.45;;;22.40;43.50;;;;;;5094486;28;20477;-64
2021/06/17 03:42:16;;;;;;;4.55;2.42;;;22.40;43.50;;;;;;5094573;28;20051;-64
2021/06/17 03:44:47;;;;;;;6.45;2.35;;;22.40;43.70;;;;;;5113234;28;20015;-64
2021/06/17 03:47:15;;;;;;;3.75;2.28;;;22.30;43.70;;;;;;5094566;28;20048;-64
2021/06/17 03:49:43;;;;;;;7.72;2.60;;;22.40;43.80;;;;;;5094232;28;20017;-64
2021/06/17 03:52:10;;;;;;;11.20;2.70;;;22.40;44.00;;;;;;5103655;28;20044;-64
2021/06/17 03:54:36;;;;;;;9.30;2.72;;;22.40;44.40;;;;;;5114563;28;20019;-64
2021/06/17 03:57:04;;;;;;;26.20;4.00;;;22.40;44.20;;;;;;5114641;28;20065;-64
2021/06/17 03:59:35;;;;;;;17.27;4.07;;;22.40;44.70;;;;;;5114490;28;20031;-65
2021/06/17 04:02:01;;;;;;;11.05;3.35;;;22.40;44.70;;;;;;5114540;28;20022;-64
2021/06/17 04:04:27;;;;;;;8.48;3.10;;;22.40;44.70;;;;;;5114521;28;20020;-64
2021/06/17 04:06:57;;;;;;;5.90;2.83;;;22.40;44.90;;;;;;5113905;28;20481;-64
2021/06/17 04:09:28;;;;;;;9.43;3.03;;;22.50;45.10;;;;;;5113303;28;20019;-65
2021/06/17 04:12:01;;;;;;;6.15;2.97;;;22.50;45.50;;;;;;5114485;28;20064;-64
2021/06/17 04:14:29;;;;;;;7.68;2.70;;;22.50;45.60;;;;;;5114434;28;20062;-64
2021/06/17 04:16:56;;;;;;;5.88;2.78;;;22.60;45.60;;;;;;5094528;28;20132;-64
2021/06/17 04:19:25;;;;;;;5.65;2.30;;;22.60;45.60;;;;;;5093823;28;20024;-64
2021/06/17 04:21:55;;;;;;;4.40;2.80;;;22.60;46.50;;;;;;5093797;28;20088;-64
2021/06/17 04:24:23;;;;;;;5.93;2.88;;;22.70;45.70;;;;;;5093708;28;20016;-64
2021/06/17 04:26:52;;;;;;;4.50;2.97;;;22.70;45.80;;;;;;5093691;28;20027;-64
2021/06/17 04:29:19;;;;;;;9.35;3.05;;;22.70;45.70;;;;;;5092329;28;20047;-65
2021/06/17 04:31:48;;;;;;;6.43;3.20;;;22.70;45.30;;;;;;5093664;28;20028;-64
2021/06/17 04:34:15;;;;;;;5.93;3.03;;;22.80;45.20;;;;;;5093292;28;20020;-64
2021/06/17 04:36:41;;;;;;;6.50;2.95;;;22.80;45.00;;;;;;5093462;28;20032;-64
2021/06/17 04:39:07;;;;;;;10.48;2.85;;;22.80;45.20;;;;;;5093479;28;20073;-64
2021/06/17 04:41:36;;;;;;;5.18;2.90;;;22.90;45.00;;;;;;5093428;28;20020;-64
2021/06/17 04:44:02;;;;;;;9.30;3.30;;;22.90;45.00;;;;;;5092091;28;20359;-65
2021/06/17 04:46:30;;;;;;;5.20;2.78;;;23.00;45.00;;;;;;5092358;28;20119;-64
2021/06/17 04:48:56;;;;;;;10.95;3.33;;;23.00;45.20;;;;;;5093306;28;20107;-64
2021/06/17 04:51:24;;;;;;;9.55;3.63;;;23.00;45.30;;;;;;5107825;28;20118;-64
2021/06/17 04:53:52;;;;;;;9.02;3.58;;;23.10;45.40;;;;;;5113592;28;20054;-65
2021/06/17 04:56:19;;;;;;;21.92;4.50;;;23.10;45.30;;;;;;5113505;28;20020;-65
2021/06/17 04:58:49;;;;;;;16.13;3.92;;;23.20;45.40;;;;;;5113316;28;20024;-65
2021/06/17 05:01:18;;;;;;;24.55;4.50;;;23.20;45.30;;;;;;5113480;28;20026;-64
2021/06/17 05:03:48;;;;;;;28.52;4.80;;;23.30;45.20;;;;;;5112143;28;20024;-65
2021/06/17 05:06:17;;;;;;;14.90;4.30;;;23.40;45.30;;;;;;5113365;28;20015;-65
2021/06/17 05:11:27;;;;;;;20.80;4.25;;;23.50;45.20;;;;;;5113271;28;20421;-65
2021/06/17 05:13:53;;;;;;;6.95;3.63;;;23.50;45.00;;;;;;5113205;28;20537;-64
2021/06/17 05:16:18;;;;;;;20.85;4.63;;;23.60;45.00;;;;;;5099353;28;20036;-65
2021/06/17 05:18:44;;;;;;;32.08;6.60;;;23.70;45.10;;;;;;5091882;28;20027;-65
2021/06/17 05:21:11;;;;;;;16.33;4.40;;;23.70;45.20;;;;;;5092726;28;20048;-65
2021/06/17 05:23:38;;;;;;;14.45;4.10;;;23.70;45.10;;;;;;5092699;28;20024;-65
2021/06/17 05:26:05;;;;;;;16.42;3.90;;;23.80;45.10;;;;;;5092260;28;20032;-65
2021/06/17 05:28:31;;;;;;;17.85;4.50;;;23.80;44.80;;;;;;5092651;28;20055;-65
2021/06/17 05:31:01;;;;;;;12.02;3.78;;;23.90;44.70;;;;;;5092515;28;20504;-65
2021/06/17 05:33:30;;;;;;;8.75;3.70;;;23.90;44.70;;;;;;5091978;28;20389;-65
2021/06/17 05:35:57;;;;;;;7.15;3.60;;;24.00;44.70;;;;;;5092288;28;20020;-64
2021/06/17 05:38:24;;;;;;;16.58;3.40;;;24.10;44.60;;;;;;5092561;28;20106;-65
2021/06/17 05:40:51;;;;;;;11.45;3.90;;;24.10;44.50;;;;;;5092610;28;20020;-65
2021/06/17 05:43:19;;;;;;;10.20;3.72;;;24.10;44.50;;;;;;5092154;28;20013;-65
2021/06/17 05:45:45;;;;;;;16.23;3.67;;;24.20;44.50;;;;;;5092839;28;20389;-65
2021/06/17 05:48:11;;;;;;;11.38;3.50;;;24.30;44.40;;;;;;5092411;28;20028;-65
2021/06/17 05:50:37;;;;;;;7.03;3.38;;;24.30;44.50;;;;;;5092202;28;20037;-65
2021/06/17 05:53:04;;;;;;;23.60;4.40;;;24.40;44.20;;;;;;5092398;28;20366;-65
2021/06/17 05:55:30;;;;;;;17.35;4.30;;;24.50;44.30;;;;;;5092253;28;20028;-65
2021/06/17 05:57:56;;;;;;;30.02;4.57;;;24.50;44.20;;;;;;5092068;28;20032;-65
2021/06/17 06:00:22;;;;;;;24.10;4.47;;;24.50;44.10;;;;;;5092358;28;20056;-65
2021/06/17 06:02:48;;;;;;;14.85;4.00;;;24.60;44.00;;;;;;5092086;28;20032;-65
2021/06/17 06:05:14;;;;;;;11.65;3.92;;;24.70;44.20;;;;;;5092165;28;20028;-64
2021/06/17 06:07:39;;;;;;;10.90;3.47;;;24.70;43.90;;;;;;5092364;28;20478;-65
2021/06/17 06:10:07;;;;;;;8.45;3.38;;;24.80;43.60;;;;;;5091060;28;20028;-65
2021/06/17 06:12:33;;;;;;;15.02;3.75;;;24.90;43.60;;;;;;5092056;28;20104;-65
2021/06/17 06:14:59;;;;;;;14.60;4.13;;;24.90;43.40;;;;;;5092173;28;20476;-64
2021/06/17 06:17:25;;;;;;;9.20;3.55;;;24.90;43.30;;;;;;5091944;28;20028;-65
2021/06/17 06:19:50;;;;;;;5.03;3.45;;;25.00;42.90;;;;;;5092303;28;20016;-65
2021/06/17 06:22:16;;;;;;;13.52;3.92;;;25.10;42.80;;;;;;5092240;28;20016;-65
2021/06/17 06:24:42;;;;;;;13.43;4.28;;;25.10;42.60;;;;;;5092067;28;20469;-65
2021/06/17 06:27:09;;;;;;;12.35;3.80;;;25.20;42.40;;;;;;5091999;28;20035;-64
2021/06/17 06:29:35;;;;;;;10.85;4.05;;;25.30;42.30;;;;;;5092216;28;20016;-65
2021/06/17 06:32:01;;;;;;;5.80;3.45;;;25.40;42.00;;;;;;5096130;28;20028;-64
2021/06/17 06:34:27;;;;;;;5.07;2.80;;;25.40;41.50;;;;;;5095770;28;20046;-65
2021/06/17 06:36:53;;;;;;;8.55;2.95;;;25.50;41.60;;;;;;5095805;28;20444;-65
2021/06/17 06:39:20;;;;;;;7.68;3.10;;;25.60;41.10;;;;;;5095649;28;20389;-65
2021/06/17 06:41:47;;;;;;;14.25;3.20;;;25.70;41.10;;;;;;5095761;28;20057;-65
2021/06/17 06:44:13;;;;;;;7.13;3.33;;;25.80;40.90;;;;;;5095404;28;20020;-65
2021/06/17 06:46:40;;;;;;;9.30;2.90;;;25.80;40.60;;;;;;5095887;28;20020;-65
2021/06/17 06:49:06;;;;;;;9.88;3.00;;;25.90;40.20;;;;;;5115033;28;20076;-65
2021/06/17 06:51:38;;;;;;;8.18;3.10;;;26.00;40.10;;;;;;5115550;28;20528;-65
2021/06/17 06:54:04;;;;;;;8.60;3.45;;;26.10;40.30;;;;;;5115809;28;20106;-65
2021/06/17 06:56:30;;;;;;;12.70;3.42;;;26.10;39.80;;;;;;5115818;27;20085;-65
2021/06/17 06:58:57;;;;;;;11.52;3.35;;;26.30;40.10;;;;;;5115648;28;20028;-65
2021/06/17 07:01:23;;;;;;;7.72;3.25;;;26.30;39.80;;;;;;5114547;28;20020;-65
2021/06/17 07:03:48;;;;;;;6.85;3.53;;;26.40;39.10;;;;;;5115515;28;20018;-65
2021/06/17 07:06:14;;;;;;;16.52;3.90;;;26.40;39.40;;;;;;5115513;27;20032;-65
2021/06/17 07:08:40;;;;;;;14.73;4.32;;;26.50;39.40;;;;;;5115471;28;20020;-65
2021/06/17 07:11:06;;;;;;;14.07;4.00;;;26.60;39.00;;;;;;5115500;28;20099;-65
2021/06/17 07:13:32;;;;;;;18.73;4.32;;;26.70;38.90;;;;;;5114203;28;20055;-65
2021/06/17 07:15:57;;;;;;;5.22;2.65;;;26.80;38.70;;;;;;5102880;28;20073;-66
2021/06/17 07:18:23;;;;;;;11.13;3.72;;;26.90;38.70;;;;;;5094855;28;20031;-65
2021/06/17 07:20:49;;;;;;;7.88;3.83;;;26.90;38.40;;;;;;5093678;28;20382;-65
2021/06/17 07:23:15;;;;;;;7.28;3.08;;;27.00;38.30;;;;;;5095267;28;20020;-65
2021/06/17 07:25:42;;;;;;;5.82;2.90;;;27.10;38.40;;;;;;5094932;28;20446;-65
2021/06/17 07:28:08;;;;;;;5.90;2.83;;;27.20;37.90;;;;;;5094545;28;20020;-65
2021/06/17 07:30:34;;;;;;;12.18;3.05;;;27.20;37.50;;;;;;5094651;28;20077;-65
2021/06/17 07:33:00;;;;;;;8.75;3.28;;;27.30;37.60;;;;;;5094430;28;20024;-65
2021/06/17 07:35:26;;;;;;;9.70;3.20;;;27.40;38.00;;;;;;5094526;28;20028;-65
2021/06/17 07:37:52;;;;;;;5.30;2.63;;;27.40;37.70;;;;;;5094480;28;20027;-65
2021/06/17 07:40:18;;;;;;;5.00;2.42;;;27.60;37.00;;;;;;5094581;28;20036;-65
2021/06/17 07:42:44;;;;;;;3.30;2.28;;;27.60;37.00;;;;;;5094238;28;20008;-65
2021/06/17 07:45:11;;;;;;;4.50;2.40;;;27.70;37.00;;;;;;5098508;28;20369;-65
2021/06/17 07:47:38;;;;;;;5.95;2.60;;;27.80;36.70;;;;;;5114413;28;20516;-65
2021/06/17 07:50:07;;;;;;;6.55;1.90;;;27.90;36.80;;;;;;5114970;28;20027;-65
2021/06/17 07:52:33;;;;;;;3.47;2.38;;;28.00;35.70;;;;;;5114337;28;20093;-64
2021/06/17 07:54:58;;;;;;;4.45;2.80;;;28.10;36.20;;;;;;5114505;28;20016;-64
2021/06/17 07:57:24;;;;;;;7.22;2.20;;;28.20;36.20;;;;;;5112731;28;20069;-65
2021/06/17 07:59:50;;;;;;;2.72;2.10;;;28.30;35.80;;;;;;5110763;28;20057;-65
2021/06/17 08:02:16;;;;;;;3.35;2.20;;;28.40;36.00;;;;;;5113675;28;20028;-66
2021/06/17 08:04:42;;;;;;;4.40;2.22;;;28.50;35.70;;;;;;5112719;28;20345;-66
2021/06/17 08:07:07;;;;;;;4.93;2.40;;;28.60;35.20;;;;;;5095388;28;20012;-65
2021/06/17 08:09:33;;;;;;;7.53;2.78;;;28.60;34.90;;;;;;5093987;28;20481;-66
2021/06/17 08:11:59;;;;;;;6.82;2.75;;;28.70;34.40;;;;;;5094044;28;20038;-66
2021/06/17 08:14:25;;;;;;;3.50;2.42;;;28.80;34.70;;;;;;5103827;28;20172;-66
2021/06/17 08:16:53;;;;;;;2.72;1.80;;;28.90;34.80;;;;;;5109412;28;20027;-66
2021/06/17 08:19:25;;;;;;;3.00;2.10;;;28.90;33.10;;;;;;5097176;28;20415;-65
2021/06/17 08:21:51;;;;;;;5.65;2.00;;;29.00;33.50;;;;;;5110525;28;20480;-65
2021/06/17 08:24:17;;;;;;;4.88;2.20;;;29.10;33.50;;;;;;5100920;28;20032;-65
2021/06/17 08:26:43;;;;;;;4.35;2.20;;;29.20;33.20;;;;;;5093779;28;20485;-65
2021/06/17 08:29:09;;;;;;;5.00;1.88;;;29.20;33.40;;;;;;5105014;28;20030;-65
2021/06/17 08:31:36;;;;;;;3.17;2.22;;;29.30;32.60;;;;;;5095294;28;20032;-65
2021/06/17 08:34:03;;;;;;;6.20;2.10;;;29.40;32.30;;;;;;5098341;28;20027;-66
2021/06/17 08:36:28;;;;;;;3.22;2.00;;;29.40;31.40;;;;;;5099420;28;20023;-67
2021/06/17 08:38:54;;;;;;;3.97;2.33;;;29.50;31.90;;;;;;5093394;28;20085;-66
2021/06/17 08:41:20;;;;;;;3.28;1.90;;;29.50;32.30;;;;;;5093403;28;20489;-65
2021/06/17 08:43:46;;;;;;;3.75;2.30;;;29.60;32.70;;;;;;5093077;28;20044;-66
2021/06/17 08:46:12;;;;;;;5.47;2.50;;;29.70;32.30;;;;;;5097083;28;20389;-66
2021/06/17 08:48:40;;;;;;;5.50;2.05;;;29.70;31.20;;;;;;5093173;28;20448;-66
2021/06/17 08:51:06;;;;;;;3.35;2.35;;;29.80;31.20;;;;;;5109660;28;20358;-66
2021/06/17 08:53:33;;;;;;;7.18;2.40;;;29.90;31.30;;;;;;5104091;28;20048;-67
2021/06/17 08:55:59;;;;;;;5.43;2.67;;;29.90;31.20;;;;;;5092280;28;20012;-66
2021/06/17 08:58:24;;;;;;;3.45;2.50;;;30.00;31.60;;;;;;5098753;28;20098;-66
2021/06/17 09:00:50;;;;;;;3.95;2.42;;;30.00;31.80;;;;;;5092086;28;20070;-66
2021/06/17 09:03:18;;;;;;;4.00;2.30;;;30.10;31.70;;;;;;5095874;28;20020;-66
2021/06/17 09:05:55;;;;;;;10.85;2.90;;;30.20;31.50;;;;;;5092180;28;20373;-67
2021/06/17 09:08:27;;;;;;;4.05;2.15;;;30.20;31.70;;;;;;5092167;28;20032;-66
2021/06/17 09:10:54;;;;;;;6.88;2.53;;;30.30;31.90;;;;;;5091970;28;20024;-66
2021/06/17 09:13:21;;;;;;;4.25;2.38;;;30.40;32.00;;;;;;5096052;28;20563;-67
2021/06/17 09:15:52;;;;;;;5.45;2.70;;;30.40;32.00;;;;;;5102667;28;20028;-66
2021/06/17 09:18:31;;;;;;;5.35;2.78;;;30.50;32.00;;;;;;5091896;28;20107;-66
2021/06/17 09:21:10;;;;;;;5.60;2.70;;;30.60;31.90;;;;;;5091904;28;20016;-66
2021/06/17 09:23:38;;;;;;;2.58;2.13;;;30.60;31.60;;;;;;5095534;28;20011;-66
2021/06/17 09:26:12;;;;;;;3.83;2.60;;;30.70;31.50;;;;;;5102045;28;20027;-66
2021/06/17 09:29:07;;;;;;;7.82;2.72;;;30.80;31.30;;;;;;5106104;28;20385;-66
2021/06/17 09:31:44;;;;;;;4.15;2.17;;;30.80;32.20;;;;;;5093988;28;20089;-66
2021/06/17 09:34:12;;;;;;;8.15;2.58;;;30.80;31.40;;;;;;5104002;28;20106;-66
2021/06/17 09:36:40;;;;;;;5.32;2.80;;;30.90;31.40;;;;;;5092847;28;20020;-66
2021/06/17 09:39:14;;;;;;;4.47;2.53;;;30.90;31.30;;;;;;5106719;28;20077;-66
2021/06/17 09:41:42;;;;;;;3.75;2.35;;;30.90;31.40;;;;;;5111844;28;20031;-66
2021/06/17 09:44:46;;;;;;;8.40;2.70;;;31.00;31.30;;;;;;5111709;28;20085;-66
2021/06/17 09:47:26;;;;;;;3.30;2.20;;;31.00;31.80;;;;;;5030481;28;20029;-66
2021/06/17 09:49:54;;;;;;;4.30;2.50;;;31.10;31.20;;;;;;5030429;28;20109;-68
2021/06/17 09:52:35;;;;;;;4.32;2.42;;;31.10;31.00;;;;;;5012831;28;20458;-68
2021/06/17 09:55:01;;;;;;;2.75;1.92;;;31.20;31.40;;;;;;5016380;28;20030;-67
2021/06/17 09:57:33;;;;;;;3.13;2.13;;;31.30;31.20;;;;;;5017471;28;20031;-68
2021/06/17 10:00:09;;;;;;;6.40;2.95;;;31.30;30.80;;;;;;5029990;28;20037;-68
2021/06/17 10:02:36;;;;;;;4.53;2.70;;;31.40;30.70;;;;;;5024878;28;20123;-68
2021/06/17 10:05:21;;;;;;;5.00;2.80;;;31.40;30.00;;;;;;5026500;28;20056;-67
2021/06/17 10:07:47;;;;;;;2.80;2.33;;;31.40;30.10;;;;;;5033869;28;20025;-67
2021/06/17 10:10:15;;;;;;;3.85;2.42;;;31.50;29.60;;;;;;5033029;28;20034;-67
2021/06/17 10:12:43;;;;;;;3.60;2.17;;;31.60;29.70;;;;;;5032416;28;20041;-68
2021/06/17 10:15:10;;;;;;;7.47;3.08;;;31.60;29.90;;;;;;5033569;28;20022;-68
2021/06/17 10:17:37;;;;;;;3.85;2.58;;;31.70;29.40;;;;;;5063763;28;20481;-68
2021/06/17 10:20:09;;;;;;;6.13;2.25;;;31.80;29.50;;;;;;5113890;28;20102;-68
2021/06/17 10:22:39;;;;;;;5.43;2.88;;;31.80;29.80;;;;;;5095035;28;20020;-68
2021/06/17 10:25:18;;;;;;;4.57;2.45;;;31.90;29.20;;;;;;5099712;28;20324;-68
2021/06/17 10:27:46;;;;;;;2.97;2.28;;;31.90;28.70;;;;;;5111018;28;20480;-68
2021/06/17 10:30:12;;;;;;;5.53;2.80;;;31.90;29.00;;;;;;5115219;28;20032;-68
2021/06/17 10:32:44;;;;;;;4.18;2.47;;;32.00;29.20;;;;;;5115883;28;20030;-68
2021/06/17 10:35:10;;;;;;;4.18;2.20;;;32.00;29.10;;;;;;5104045;28;20063;-68
2021/06/17 10:38:06;;;;;;;4.82;2.40;;;32.10;29.10;;;;;;5095403;28;20024;-68
2021/06/17 10:40:34;;;;;;;3.67;2.00;;;32.20;28.90;;;;;;5098825;28;20032;-68
2021/06/17 10:43:20;;;;;;;4.40;2.45;;;32.30;28.40;;;;;;5103345;28;20027;-67
2021/06/17 10:45:49;;;;;;;5.18;1.95;;;32.30;28.30;;;;;;5105794;28;20046;-68
2021/06/17 10:48:21;;;;;;;4.22;2.42;;;32.30;28.30;;;;;;5116060;28;20031;-67
2021/06/17 10:51:01;;;;;;;3.20;2.35;;;32.40;28.40;;;;;;5115609;28;20063;-67
2021/06/17 10:53:49;;;;;;;2.30;2.00;;;32.50;28.70;;;;;;5114214;28;20035;-67
2021/06/17 10:56:37;;;;;;;2.72;2.33;;;32.50;28.40;;;;;;5112150;28;20385;-67
2021/06/17 10:59:03;;;;;;;3.75;2.53;;;32.60;28.10;;;;;;5102913;28;20127;-67
2021/06/17 11:01:34;;;;;;;2.63;2.08;;;32.60;27.90;;;;;;5100269;28;20085;-68
2021/06/17 11:04:15;;;;;;;3.60;2.20;;;32.70;28.00;;;;;;5113345;28;20107;-68
2021/06/17 11:06:56;;;;;;;2.50;2.20;;;32.70;27.80;;;;;;5106356;28;20026;-68
2021/06/17 11:09:35;;;;;;;3.67;2.40;;;32.80;27.60;;;;;;5115473;28;20063;-68
2021/06/17 11:12:13;;;;;;;7.00;2.42;;;32.80;27.70;;;;;;5115593;28;20489;-68
2021/06/17 11:14:41;;;;;;;6.38;2.80;;;32.90;27.80;;;;;;5113777;28;20077;-68
2021/06/17 11:17:33;;;;;;;2.70;2.13;;;32.90;27.60;;;;;;5106769;28;20477;-68
2021/06/17 11:20:14;;;;;;;3.95;2.28;;;33.00;27.60;;;;;;5101485;28;20030;-68
2021/06/17 11:22:47;;;;;;;3.45;2.03;;;33.00;27.50;;;;;;5095006;28;20377;-68
2021/06/17 11:25:16;;;;;;;;;;;33.00;27.00;;;;;;5101859;28;20436;-68
2021/06/17 11:27:55;;;;;;;3.65;2.03;;;33.10;27.80;;;;;;5105748;28;19914;-68
2021/06/17 11:30:41;;;;;;;3.80;2.08;;;33.20;27.30;;;;;;5094574;28;20099;-68
2021/06/17 11:33:16;;;;;;;4.05;2.35;;;33.20;26.90;;;;;;5108009;27;20028;-68
2021/06/17 11:35:50;;;;;;;6.40;1.92;;;33.30;26.70;;;;;;5098551;28;20020;-68
2021/06/17 11:38:26;;;;;;;5.60;2.58;;;33.30;26.40;;;;;;5094194;28;20027;-67
2021/06/17 11:40:53;;;;;;;5.45;2.70;;;33.30;26.00;;;;;;5100912;28;20402;-68
2021/06/17 11:43:29;;;;;;;4.55;2.30;;;33.30;26.10;;;;;;5114410;28;20093;-68
2021/06/17 11:45:55;;;;;;;3.08;2.33;;;33.40;26.20;;;;;;5110429;28;20485;-67
2021/06/17 11:48:22;;;;;;;5.28;2.20;;;33.50;26.40;;;;;;5113337;28;20366;-67
2021/06/17 11:50:53;;;;;;;5.22;2.70;;;33.50;26.30;;;;;;5096331;28;20040;-68
2021/06/17 11:53:28;;;;;;;6.57;2.63;;;33.50;25.60;;;;;;5112240;28;20027;-67
2021/06/17 11:55:56;;;;;;;5.10;2.42;;;33.50;26.00;;;;;;5105385;28;20102;-68
2021/06/17 11:58:27;;;;;;;4.30;2.50;;;33.60;25.60;;;;;;5112004;28;20427;-68
2021/06/17 12:00:53;;;;;;;5.53;2.58;;;33.60;25.20;;;;;;5103169;28;20367;-68
2021/06/17 12:03:23;;;;;;;4.80;2.55;;;33.60;25.80;;;;;;5094031;28;20024;-68
2021/06/17 12:05:50;;;;;;;5.38;2.63;;;33.70;25.80;;;;;;5094398;28;20686;-68
2021/06/17 12:08:16;;;;;;;6.32;2.80;;;33.70;25.50;;;;;;5094068;28;20543;-68
2021/06/17 12:10:42;;;;;;;7.07;3.28;;;33.70;25.80;;;;;;5093849;28;20024;-68
2021/06/17 12:13:10;;;;;;;8.25;3.30;;;33.80;25.30;;;;;;5096009;28;20035;-68
2021/06/17 12:15:41;;;;;;;6.65;2.60;;;33.80;25.80;;;;;;5114331;27;20032;-68
2021/06/17 12:18:13;;;;;;;2.60;2.40;;;33.80;25.60;;;;;;5109862;28;20040;-68
2021/06/17 12:20:41;;;;;;;4.32;2.47;;;33.90;25.20;;;;;;5100809;28;20016;-68
2021/06/17 12:23:31;;;;;;;4.72;3.00;;;33.90;25.60;;;;;;5103961;28;20055;-67
2021/06/17 12:26:01;;;;;;;5.40;2.80;;;33.90;25.40;;;;;;5112063;28;20016;-67
2021/06/17 12:28:28;;;;;;;9.20;3.78;;;34.00;25.60;;;;;;5106062;28;20076;-67
2021/06/17 12:30:56;;;;;;;4.28;2.65;;;34.00;25.80;;;;;;5097070;28;20051;-68
2021/06/17 12:33:31;;;;;;;6.07;2.75;;;34.10;25.30;;;;;;5093648;28;20028;-68
2021/06/17 12:36:03;;;;;;;7.50;2.78;;;34.20;25.30;;;;;;5093918;28;20523;-68
2021/06/17 12:38:39;;;;;;;3.28;2.17;;;34.20;25.10;;;;;;5093576;28;20560;-68
2021/06/17 12:41:18;;;;;;;3.75;2.30;;;34.30;24.90;;;;;;5093443;28;20016;-68
2021/06/17 12:43:54;;;;;;;2.33;2.13;;;34.40;24.90;;;;;;5093089;28;20015;-68
2021/06/17 12:46:28;;;;;;;3.63;2.33;;;34.40;24.20;;;;;;5092772;28;20431;-68
2021/06/17 12:52:03;;;;;;;7.50;2.53;;;34.40;23.90;;;;;;5093099;28;20032;-68
2021/06/17 12:54:33;;;;;;;11.05;2.10;;;34.50;24.30;;;;;;5093582;28;20081;-68
2021/06/17 12:57:12;;;;;;;5.10;2.42;;;34.50;24.00;;;;;;5108873;28;20089;-68
2021/06/17 12:59:47;;;;;;;5.63;2.65;;;34.50;24.00;;;;;;5105445;28;20076;-68
2021/06/17 13:02:20;;;;;;;4.93;2.72;;;34.60;24.40;;;;;;5107648;28;20023;-67